• Join FlightAware (Why Join?)
  • Login
  • US Flag 
07:51PM EST


 

Airport Tracker/Info


-or-


 

Live Flight TrackerFlight Track Log ✈ N448AM ✈ 26-Jun-2012 ✈ KMIA - MYGF / FPO

Flight Track Log - Related Links

Times and Time Zones

All times are in EDT time to prevent confusion due to time zone crossing. See the N448AM flight status page for this flight to view local times or setup timezone preferences in your user account.

Time Position Orientation Groundspeed Altitude Reporting Facility
EDT Latitude Longitude Course Direction KTS MPH feet Rate Location/Type
03:57PM 25.9369 -79.9579 246° West  Level FlightAware Approximate
03:58PM 25.8017 -80.3000 24° Northeast 126 145 800  Level Miami Center
04:03PM 25.9878 -80.2083 78° East 209 241 7,000 1,200 Climbing Miami Center
04:04PM 26.0019 -80.1347 78° East 216 249 8,200 1,080 Climbing Miami Center
04:05PM 26.0161 -80.0633 78° East 218 251 9,400 960 Climbing Miami Center
04:06PM 26.0278 -80.0014 77° East 219 252 10,200 780 Climbing Miami Center
04:07PM 26.0372 -79.9553 83° East 230 265 10,700 480 Climbing Miami Center
04:08PM 26.0450 -79.8814 80° East 236 272 11,000 60 Climbing Miami Center
04:09PM 26.0569 -79.8056 92° East 241 277 10,900 -60 Descending Miami Center
04:10PM 26.0542 -79.7314 68° East 236 272 10,900  Level Miami Center
04:11PM 26.0786 -79.6625 61° Northeast 236 272 10,900 -300 Level Miami Center
04:12PM 26.1133 -79.5939 61° Northeast 236 272 10,300 -1,020 Descending Miami Center
04:14PM 26.1783 -79.4636 61° Northeast 241 277 8,000 -1,200 Descending Miami Center
04:15PM 26.2086 -79.4017 48° Northeast 235 270 6,700 -1,440 Descending Miami Center
04:16PM 26.2514 -79.3494 59° Northeast 229 264 5,200 -1,380 Descending Miami Center
04:17PM 26.2836 -79.2897 61° Northeast 229 264 4,000 -600 Descending Miami Center
04:18PM 26.3161 -79.2233 64° Northeast 223 257 4,000  Level Miami Center
04:19PM 26.3486 -79.1497 62° Northeast 243 280 4,000  Level Miami Center
04:20PM 26.3811 -79.0808 63° Northeast 250 288 4,000 -240 Level Miami Center
04:21PM 26.4111 -79.0164 63° Northeast 255 293 3,600 -420 Descending Miami Center